sensor_id;sensor_type;location;lat;lon;timestamp;P1;durP1;ratioP1;P2;durP2;ratioP2
74644;SDS011;63163;55.630;37.594;2023-12-29T00:00:44;3.900000;;;3.500000;;
74644;SDS011;63163;55.630;37.594;2023-12-29T00:01:44;3.800000;;;2.900000;;
74644;SDS011;63163;55.630;37.594;2023-12-29T00:02:45;3.900000;;;3.300000;;
74644;SDS011;63163;55.630;37.594;2023-12-29T00:03:45;4.700000;;;4.100000;;
74644;SDS011;63163;55.630;37.594;2023-12-29T00:04:46;3.400000;;;3.000000;;
74644;SDS011;63163;55.630;37.594;2023-12-29T00:05:46;4.000000;;;3.400000;;
74644;SDS011;63163;55.630;37.594;2023-12-29T00:06:47;5.100000;;;3.400000;;
74644;SDS011;63163;55.630;37.594;2023-12-29T00:07:48;4.500000;;;3.300000;;
74644;SDS011;63163;55.630;37.594;2023-12-29T00:08:49;4.300000;;;3.300000;;
74644;SDS011;63163;55.630;37.594;2023-12-29T00:09:49;4.500000;;;3.700000;;
74644;SDS011;63163;55.630;37.594;2023-12-29T00:10:50;4.700000;;;3.500000;;
74644;SDS011;63163;55.630;37.594;2023-12-29T00:11:50;4.300000;;;3.300000;;
74644;SDS011;63163;55.630;37.594;2023-12-29T00:12:51;4.100000;;;3.200000;;
74644;SDS011;63163;55.630;37.594;2023-12-29T00:13:51;4.100000;;;3.100000;;
74644;SDS011;63163;55.630;37.594;2023-12-29T00:14:52;4.100000;;;3.200000;;
74644;SDS011;63163;55.630;37.594;2023-12-29T00:15:53;4.900000;;;3.700000;;
74644;SDS011;63163;55.630;37.594;2023-12-29T00:16:53;5.600000;;;5.100000;;
74644;SDS011;63163;55.630;37.594;2023-12-29T00:17:57;4.100000;;;3.200000;;
74644;SDS011;63163;55.630;37.594;2023-12-29T00:18:57;4.300000;;;3.400000;;
74644;SDS011;63163;55.630;37.594;2023-12-29T00:19:58;3.900000;;;3.300000;;
74644;SDS011;63163;55.630;37.594;2023-12-29T00:20:58;4.900000;;;3.600000;;
74644;SDS011;63163;55.630;37.594;2023-12-29T00:21:59;5.000000;;;3.700000;;
74644;SDS011;63163;55.630;37.594;2023-12-29T00:23:03;4.000000;;;3.200000;;
74644;SDS011;63163;55.630;37.594;2023-12-29T00:24:04;4.400000;;;3.400000;;
74644;SDS011;63163;55.630;37.594;2023-12-29T00:25:04;4.200000;;;3.600000;;
74644;SDS011;63163;55.630;37.594;2023-12-29T00:26:05;4.300000;;;3.500000;;
74644;SDS011;63163;55.630;37.594;2023-12-29T00:27:06;5.400000;;;4.000000;;
74644;SDS011;63163;55.630;37.594;2023-12-29T00:28:07;4.900000;;;3.900000;;
74644;SDS011;63163;55.630;37.594;2023-12-29T00:29:07;4.600000;;;3.200000;;
74644;SDS011;63163;55.630;37.594;2023-12-29T00:30:08;4.400000;;;3.300000;;
74644;SDS011;63163;55.630;37.594;2023-12-29T00:31:09;4.700000;;;3.500000;;
74644;SDS011;63163;55.630;37.594;2023-12-29T00:32:14;3.700000;;;3.300000;;
74644;SDS011;63163;55.630;37.594;2023-12-29T00:33:15;6.200000;;;4.700000;;
74644;SDS011;63163;55.630;37.594;2023-12-29T00:34:15;5.900000;;;4.100000;;
74644;SDS011;63163;55.630;37.594;2023-12-29T00:35:16;5.100000;;;3.800000;;
74644;SDS011;63163;55.630;37.594;2023-12-29T00:36:16;4.600000;;;3.900000;;
74644;SDS011;63163;55.630;37.594;2023-12-29T00:37:17;4.800000;;;3.700000;;
74644;SDS011;63163;55.630;37.594;2023-12-29T00:38:17;5.300000;;;3.400000;;
74644;SDS011;63163;55.630;37.594;2023-12-29T00:39:18;5.500000;;;3.300000;;
74644;SDS011;63163;55.630;37.594;2023-12-29T00:40:18;3.800000;;;3.100000;;
74644;SDS011;63163;55.630;37.594;2023-12-29T00:41:19;4.300000;;;3.800000;;
74644;SDS011;63163;55.630;37.594;2023-12-29T00:42:19;4.600000;;;3.100000;;
74644;SDS011;63163;55.630;37.594;2023-12-29T00:43:20;5.200000;;;3.100000;;
74644;SDS011;63163;55.630;37.594;2023-12-29T00:44:21;4.700000;;;3.400000;;
74644;SDS011;63163;55.630;37.594;2023-12-29T00:45:22;4.600000;;;2.900000;;
74644;SDS011;63163;55.630;37.594;2023-12-29T00:46:23;4.200000;;;3.600000;;
74644;SDS011;63163;55.630;37.594;2023-12-29T00:47:23;4.600000;;;3.400000;;
74644;SDS011;63163;55.630;37.594;2023-12-29T00:48:24;4.200000;;;3.000000;;
74644;SDS011;63163;55.630;37.594;2023-12-29T00:49:24;5.000000;;;3.500000;;
74644;SDS011;63163;55.630;37.594;2023-12-29T00:50:25;4.100000;;;3.300000;;
74644;SDS011;63163;55.630;37.594;2023-12-29T00:51:26;4.500000;;;3.500000;;
74644;SDS011;63163;55.630;37.594;2023-12-29T00:52:27;4.200000;;;3.600000;;
74644;SDS011;63163;55.630;37.594;2023-12-29T00:53:27;4.800000;;;3.700000;;
74644;SDS011;63163;55.630;37.594;2023-12-29T00:54:29;4.200000;;;3.700000;;
74644;SDS011;63163;55.630;37.594;2023-12-29T00:55:29;4.400000;;;3.300000;;
74644;SDS011;63163;55.630;37.594;2023-12-29T00:56:30;5.000000;;;3.300000;;
74644;SDS011;63163;55.630;37.594;2023-12-29T00:57:31;5.300000;;;3.500000;;
74644;SDS011;63163;55.630;37.594;2023-12-29T00:58:31;4.400000;;;3.400000;;
74644;SDS011;63163;55.630;37.594;2023-12-29T00:59:32;4.500000;;;3.600000;;
74644;SDS011;63163;55.630;37.594;2023-12-29T01:00:32;4.700000;;;3.700000;;
74644;SDS011;63163;55.630;37.594;2023-12-29T01:01:33;5.200000;;;3.600000;;
74644;SDS011;63163;55.630;37.594;2023-12-29T01:02:34;3.400000;;;3.000000;;
74644;SDS011;63163;55.630;37.594;2023-12-29T01:03:34;4.100000;;;3.200000;;
74644;SDS011;63163;55.630;37.594;2023-12-29T01:04:36;4.300000;;;3.100000;;
74644;SDS011;63163;55.630;37.594;2023-12-29T01:05:37;4.200000;;;3.300000;;
74644;SDS011;63163;55.630;37.594;2023-12-29T01:06:37;4.100000;;;3.100000;;
74644;SDS011;63163;55.630;37.594;2023-12-29T01:07:38;3.900000;;;3.400000;;
74644;SDS011;63163;55.630;37.594;2023-12-29T01:08:38;3.900000;;;3.100000;;
74644;SDS011;63163;55.630;37.594;2023-12-29T01:09:39;4.100000;;;3.100000;;
74644;SDS011;63163;55.630;37.594;2023-12-29T01:10:40;4.200000;;;3.300000;;
74644;SDS011;63163;55.630;37.594;2023-12-29T01:11:41;4.500000;;;3.300000;;
74644;SDS011;63163;55.630;37.594;2023-12-29T01:12:41;3.700000;;;3.100000;;
74644;SDS011;63163;55.630;37.594;2023-12-29T01:13:42;3.900000;;;3.100000;;
74644;SDS011;63163;55.630;37.594;2023-12-29T01:14:42;5.100000;;;3.600000;;
74644;SDS011;63163;55.630;37.594;2023-12-29T01:15:43;4.300000;;;3.400000;;
74644;SDS011;63163;55.630;37.594;2023-12-29T01:16:45;6.400000;;;3.200000;;
74644;SDS011;63163;55.630;37.594;2023-12-29T01:17:46;4.600000;;;3.700000;;
74644;SDS011;63163;55.630;37.594;2023-12-29T01:18:47;4.300000;;;3.500000;;
74644;SDS011;63163;55.630;37.594;2023-12-29T01:19:47;4.800000;;;3.600000;;
74644;SDS011;63163;55.630;37.594;2023-12-29T01:20:48;3.900000;;;3.400000;;
74644;SDS011;63163;55.630;37.594;2023-12-29T01:21:48;4.400000;;;3.300000;;
74644;SDS011;63163;55.630;37.594;2023-12-29T01:22:49;4.300000;;;3.400000;;
74644;SDS011;63163;55.630;37.594;2023-12-29T01:23:49;4.100000;;;3.400000;;
74644;SDS011;63163;55.630;37.594;2023-12-29T01:24:49;4.700000;;;3.500000;;
74644;SDS011;63163;55.630;37.594;2023-12-29T01:25:50;3.400000;;;3.100000;;
74644;SDS011;63163;55.630;37.594;2023-12-29T01:26:50;4.800000;;;3.700000;;
74644;SDS011;63163;55.630;37.594;2023-12-29T01:27:51;5.500000;;;3.700000;;
74644;SDS011;63163;55.630;37.594;2023-12-29T01:28:51;4.900000;;;3.400000;;
74644;SDS011;63163;55.630;37.594;2023-12-29T01:29:52;3.900000;;;3.500000;;
74644;SDS011;63163;55.630;37.594;2023-12-29T01:30:53;4.600000;;;4.100000;;
74644;SDS011;63163;55.630;37.594;2023-12-29T01:31:53;4.300000;;;3.600000;;
74644;SDS011;63163;55.630;37.594;2023-12-29T01:32:54;4.900000;;;3.000000;;
74644;SDS011;63163;55.630;37.594;2023-12-29T01:33:54;4.100000;;;3.000000;;
74644;SDS011;63163;55.630;37.594;2023-12-29T01:34:55;4.000000;;;3.100000;;
74644;SDS011;63163;55.630;37.594;2023-12-29T01:35:55;4.500000;;;3.100000;;
74644;SDS011;63163;55.630;37.594;2023-12-29T01:36:55;4.500000;;;3.400000;;
74644;SDS011;63163;55.630;37.594;2023-12-29T01:37:56;5.300000;;;3.300000;;
74644;SDS011;63163;55.630;37.594;2023-12-29T01:38:57;4.300000;;;3.600000;;
74644;SDS011;63163;55.630;37.594;2023-12-29T01:39:57;4.600000;;;4.100000;;
74644;SDS011;63163;55.630;37.594;2023-12-29T01:41:03;4.400000;;;3.300000;;
74644;SDS011;63163;55.630;37.594;2023-12-29T01:42:04;3.900000;;;3.100000;;
74644;SDS011;63163;55.630;37.594;2023-12-29T01:43:04;4.800000;;;3.600000;;
74644;SDS011;63163;55.630;37.594;2023-12-29T01:44:21;4.900000;;;3.700000;;
74644;SDS011;63163;55.630;37.594;2023-12-29T01:45:23;4.700000;;;3.500000;;
74644;SDS011;63163;55.630;37.594;2023-12-29T01:46:24;4.000000;;;3.000000;;
74644;SDS011;63163;55.630;37.594;2023-12-29T01:47:25;5.500000;;;4.800000;;
74644;SDS011;63163;55.630;37.594;2023-12-29T01:48:26;4.200000;;;3.300000;;
74644;SDS011;63163;55.630;37.594;2023-12-29T01:49:26;5.200000;;;3.900000;;
74644;SDS011;63163;55.630;37.594;2023-12-29T01:50:27;4.700000;;;3.500000;;
74644;SDS011;63163;55.630;37.594;2023-12-29T01:51:28;4.500000;;;3.300000;;
74644;SDS011;63163;55.630;37.594;2023-12-29T01:52:29;4.400000;;;3.400000;;
74644;SDS011;63163;55.630;37.594;2023-12-29T01:53:30;4.200000;;;3.400000;;
74644;SDS011;63163;55.630;37.594;2023-12-29T01:54:33;4.500000;;;3.300000;;
74644;SDS011;63163;55.630;37.594;2023-12-29T01:55:34;4.100000;;;3.500000;;
74644;SDS011;63163;55.630;37.594;2023-12-29T01:56:35;4.100000;;;3.300000;;
74644;SDS011;63163;55.630;37.594;2023-12-29T01:57:36;4.800000;;;3.800000;;
74644;SDS011;63163;55.630;37.594;2023-12-29T01:58:39;4.100000;;;2.800000;;
74644;SDS011;63163;55.630;37.594;2023-12-29T01:59:39;4.400000;;;3.000000;;
74644;SDS011;63163;55.630;37.594;2023-12-29T02:00:40;5.300000;;;3.500000;;
74644;SDS011;63163;55.630;37.594;2023-12-29T02:01:41;4.300000;;;3.300000;;
74644;SDS011;63163;55.630;37.594;2023-12-29T02:02:42;4.200000;;;3.100000;;
74644;SDS011;63163;55.630;37.594;2023-12-29T02:03:43;4.600000;;;3.200000;;
74644;SDS011;63163;55.630;37.594;2023-12-29T02:04:44;4.000000;;;3.000000;;
74644;SDS011;63163;55.630;37.594;2023-12-29T02:05:45;4.400000;;;4.000000;;
74644;SDS011;63163;55.630;37.594;2023-12-29T02:06:45;4.300000;;;3.500000;;
74644;SDS011;63163;55.630;37.594;2023-12-29T02:07:46;3.900000;;;3.200000;;
74644;SDS011;63163;55.630;37.594;2023-12-29T02:08:47;3.900000;;;3.200000;;
74644;SDS011;63163;55.630;37.594;2023-12-29T02:09:48;4.700000;;;3.100000;;
74644;SDS011;63163;55.630;37.594;2023-12-29T02:10:49;4.600000;;;4.200000;;
74644;SDS011;63163;55.630;37.594;2023-12-29T02:11:49;4.900000;;;3.300000;;
74644;SDS011;63163;55.630;37.594;2023-12-29T02:12:50;5.500000;;;5.000000;;
74644;SDS011;63163;55.630;37.594;2023-12-29T02:13:51;3.900000;;;3.200000;;
74644;SDS011;63163;55.630;37.594;2023-12-29T02:14:52;4.000000;;;3.200000;;
74644;SDS011;63163;55.630;37.594;2023-12-29T02:15:53;3.600000;;;3.200000;;
74644;SDS011;63163;55.630;37.594;2023-12-29T02:16:58;3.600000;;;3.100000;;
74644;SDS011;63163;55.630;37.594;2023-12-29T02:18:01;4.200000;;;3.200000;;
74644;SDS011;63163;55.630;37.594;2023-12-29T02:19:04;4.200000;;;2.900000;;
74644;SDS011;63163;55.630;37.594;2023-12-29T02:20:08;3.900000;;;2.700000;;
74644;SDS011;63163;55.630;37.594;2023-12-29T02:21:09;3.300000;;;3.000000;;
74644;SDS011;63163;55.630;37.594;2023-12-29T02:22:10;4.100000;;;2.700000;;
74644;SDS011;63163;55.630;37.594;2023-12-29T02:23:12;5.000000;;;3.300000;;
74644;SDS011;63163;55.630;37.594;2023-12-29T02:24:12;4.100000;;;3.300000;;
74644;SDS011;63163;55.630;37.594;2023-12-29T02:25:13;3.500000;;;2.700000;;
74644;SDS011;63163;55.630;37.594;2023-12-29T02:26:14;4.500000;;;3.300000;;
74644;SDS011;63163;55.630;37.594;2023-12-29T02:27:19;4.200000;;;3.200000;;
74644;SDS011;63163;55.630;37.594;2023-12-29T02:28:22;3.500000;;;3.200000;;
74644;SDS011;63163;55.630;37.594;2023-12-29T02:29:23;5.800000;;;2.800000;;
74644;SDS011;63163;55.630;37.594;2023-12-29T02:30:26;5.200000;;;4.800000;;
74644;SDS011;63163;55.630;37.594;2023-12-29T02:31:29;4.100000;;;3.000000;;
74644;SDS011;63163;55.630;37.594;2023-12-29T02:32:30;3.500000;;;2.800000;;
74644;SDS011;63163;55.630;37.594;2023-12-29T02:33:33;4.100000;;;3.300000;;
74644;SDS011;63163;55.630;37.594;2023-12-29T02:34:37;4.500000;;;3.400000;;
74644;SDS011;63163;55.630;37.594;2023-12-29T02:35:39;4.300000;;;3.100000;;
74644;SDS011;63163;55.630;37.594;2023-12-29T02:36:41;3.900000;;;3.100000;;
74644;SDS011;63163;55.630;37.594;2023-12-29T02:37:43;4.000000;;;2.800000;;
74644;SDS011;63163;55.630;37.594;2023-12-29T02:38:43;3.600000;;;2.900000;;
74644;SDS011;63163;55.630;37.594;2023-12-29T02:39:44;4.100000;;;3.800000;;
74644;SDS011;63163;55.630;37.594;2023-12-29T02:40:45;3.300000;;;2.800000;;
74644;SDS011;63163;55.630;37.594;2023-12-29T02:41:46;3.500000;;;3.000000;;
74644;SDS011;63163;55.630;37.594;2023-12-29T02:42:47;3.500000;;;3.000000;;
74644;SDS011;63163;55.630;37.594;2023-12-29T02:43:48;4.400000;;;3.500000;;
74644;SDS011;63163;55.630;37.594;2023-12-29T02:44:48;4.800000;;;3.500000;;
74644;SDS011;63163;55.630;37.594;2023-12-29T02:45:49;3.300000;;;3.000000;;
74644;SDS011;63163;55.630;37.594;2023-12-29T02:46:49;5.400000;;;5.000000;;
74644;SDS011;63163;55.630;37.594;2023-12-29T02:47:51;3.900000;;;2.900000;;
74644;SDS011;63163;55.630;37.594;2023-12-29T02:48:51;4.200000;;;2.800000;;
74644;SDS011;63163;55.630;37.594;2023-12-29T02:49:52;4.700000;;;3.200000;;
74644;SDS011;63163;55.630;37.594;2023-12-29T02:50:52;4.100000;;;2.500000;;
74644;SDS011;63163;55.630;37.594;2023-12-29T02:51:53;4.100000;;;3.100000;;
74644;SDS011;63163;55.630;37.594;2023-12-29T02:52:54;4.300000;;;3.200000;;
74644;SDS011;63163;55.630;37.594;2023-12-29T02:53:54;4.500000;;;3.100000;;
74644;SDS011;63163;55.630;37.594;2023-12-29T02:54:55;3.600000;;;3.100000;;
74644;SDS011;63163;55.630;37.594;2023-12-29T02:55:55;3.700000;;;3.100000;;
74644;SDS011;63163;55.630;37.594;2023-12-29T02:56:56;4.200000;;;3.200000;;
74644;SDS011;63163;55.630;37.594;2023-12-29T02:57:56;4.700000;;;3.300000;;
74644;SDS011;63163;55.630;37.594;2023-12-29T02:58:57;3.800000;;;2.900000;;
74644;SDS011;63163;55.630;37.594;2023-12-29T02:59:58;3.800000;;;2.800000;;
74644;SDS011;63163;55.630;37.594;2023-12-29T03:00:58;3.400000;;;2.900000;;
74644;SDS011;63163;55.630;37.594;2023-12-29T03:01:59;3.700000;;;2.900000;;
74644;SDS011;63163;55.630;37.594;2023-12-29T03:02:59;3.600000;;;3.200000;;
74644;SDS011;63163;55.630;37.594;2023-12-29T03:04:00;3.800000;;;2.900000;;
74644;SDS011;63163;55.630;37.594;2023-12-29T03:05:01;3.900000;;;3.500000;;
74644;SDS011;63163;55.630;37.594;2023-12-29T03:06:02;4.000000;;;3.300000;;
74644;SDS011;63163;55.630;37.594;2023-12-29T03:07:03;4.800000;;;3.200000;;
74644;SDS011;63163;55.630;37.594;2023-12-29T03:08:04;3.900000;;;3.300000;;
74644;SDS011;63163;55.630;37.594;2023-12-29T03:09:05;4.000000;;;3.200000;;
74644;SDS011;63163;55.630;37.594;2023-12-29T03:10:06;4.500000;;;3.100000;;
74644;SDS011;63163;55.630;37.594;2023-12-29T03:11:06;4.400000;;;3.200000;;
74644;SDS011;63163;55.630;37.594;2023-12-29T03:12:07;4.600000;;;3.100000;;
74644;SDS011;63163;55.630;37.594;2023-12-29T03:13:08;5.300000;;;2.900000;;
74644;SDS011;63163;55.630;37.594;2023-12-29T03:14:09;4.500000;;;3.100000;;
74644;SDS011;63163;55.630;37.594;2023-12-29T03:15:09;3.500000;;;2.900000;;
74644;SDS011;63163;55.630;37.594;2023-12-29T03:16:10;4.600000;;;3.200000;;
74644;SDS011;63163;55.630;37.594;2023-12-29T03:17:11;4.500000;;;3.200000;;
74644;SDS011;63163;55.630;37.594;2023-12-29T03:18:12;4.300000;;;3.100000;;
74644;SDS011;63163;55.630;37.594;2023-12-29T03:19:12;3.900000;;;3.200000;;
74644;SDS011;63163;55.630;37.594;2023-12-29T03:20:13;4.200000;;;3.300000;;
74644;SDS011;63163;55.630;37.594;2023-12-29T03:21:14;4.000000;;;3.200000;;
74644;SDS011;63163;55.630;37.594;2023-12-29T03:22:14;4.100000;;;3.400000;;
74644;SDS011;63163;55.630;37.594;2023-12-29T03:23:15;4.300000;;;3.300000;;
74644;SDS011;63163;55.630;37.594;2023-12-29T03:24:16;4.900000;;;3.200000;;
74644;SDS011;63163;55.630;37.594;2023-12-29T03:25:16;4.500000;;;3.400000;;
74644;SDS011;63163;55.630;37.594;2023-12-29T03:26:17;5.700000;;;3.500000;;
74644;SDS011;63163;55.630;37.594;2023-12-29T03:27:18;3.700000;;;3.300000;;
74644;SDS011;63163;55.630;37.594;2023-12-29T03:28:18;4.600000;;;3.400000;;
74644;SDS011;63163;55.630;37.594;2023-12-29T03:29:19;4.500000;;;3.500000;;
74644;SDS011;63163;55.630;37.594;2023-12-29T03:30:20;4.000000;;;3.200000;;
74644;SDS011;63163;55.630;37.594;2023-12-29T03:31:20;3.800000;;;3.100000;;
74644;SDS011;63163;55.630;37.594;2023-12-29T03:32:21;4.300000;;;3.400000;;
74644;SDS011;63163;55.630;37.594;2023-12-29T03:33:22;5.300000;;;3.500000;;
74644;SDS011;63163;55.630;37.594;2023-12-29T03:34:22;3.600000;;;2.700000;;
74644;SDS011;63163;55.630;37.594;2023-12-29T03:35:23;4.800000;;;3.300000;;
74644;SDS011;63163;55.630;37.594;2023-12-29T03:36:24;4.400000;;;3.300000;;
74644;SDS011;63163;55.630;37.594;2023-12-29T03:37:24;4.800000;;;3.200000;;
74644;SDS011;63163;55.630;37.594;2023-12-29T03:38:25;4.500000;;;3.000000;;
74644;SDS011;63163;55.630;37.594;2023-12-29T03:39:25;4.400000;;;3.600000;;
74644;SDS011;63163;55.630;37.594;2023-12-29T03:40:26;3.900000;;;2.900000;;
74644;SDS011;63163;55.630;37.594;2023-12-29T03:41:27;4.600000;;;3.100000;;
74644;SDS011;63163;55.630;37.594;2023-12-29T03:42:27;3.900000;;;3.500000;;
74644;SDS011;63163;55.630;37.594;2023-12-29T03:43:28;4.500000;;;3.200000;;
74644;SDS011;63163;55.630;37.594;2023-12-29T03:44:28;6.200000;;;3.700000;;
74644;SDS011;63163;55.630;37.594;2023-12-29T03:45:29;4.800000;;;3.900000;;
74644;SDS011;63163;55.630;37.594;2023-12-29T03:46:30;6.000000;;;3.500000;;
74644;SDS011;63163;55.630;37.594;2023-12-29T03:47:30;5.300000;;;3.600000;;
74644;SDS011;63163;55.630;37.594;2023-12-29T03:48:32;4.500000;;;3.700000;;
74644;SDS011;63163;55.630;37.594;2023-12-29T03:49:32;5.100000;;;3.900000;;
74644;SDS011;63163;55.630;37.594;2023-12-29T03:50:34;3.900000;;;3.100000;;
74644;SDS011;63163;55.630;37.594;2023-12-29T03:51:34;4.700000;;;2.800000;;
74644;SDS011;63163;55.630;37.594;2023-12-29T03:52:35;5.400000;;;3.600000;;
74644;SDS011;63163;55.630;37.594;2023-12-29T03:53:36;5.600000;;;3.400000;;
74644;SDS011;63163;55.630;37.594;2023-12-29T03:54:36;4.300000;;;3.500000;;
74644;SDS011;63163;55.630;37.594;2023-12-29T03:55:37;5.900000;;;3.800000;;
74644;SDS011;63163;55.630;37.594;2023-12-29T03:56:37;4.600000;;;3.700000;;
74644;SDS011;63163;55.630;37.594;2023-12-29T03:57:38;5.200000;;;4.200000;;
74644;SDS011;63163;55.630;37.594;2023-12-29T03:58:38;4.900000;;;3.500000;;
74644;SDS011;63163;55.630;37.594;2023-12-29T03:59:39;4.600000;;;4.100000;;
74644;SDS011;63163;55.630;37.594;2023-12-29T04:00:40;4.100000;;;3.200000;;
74644;SDS011;63163;55.630;37.594;2023-12-29T04:01:41;4.300000;;;3.700000;;
74644;SDS011;63163;55.630;37.594;2023-12-29T04:02:43;4.200000;;;3.000000;;
74644;SDS011;63163;55.630;37.594;2023-12-29T04:03:43;4.400000;;;3.700000;;
74644;SDS011;63163;55.630;37.594;2023-12-29T04:04:44;5.200000;;;3.200000;;
74644;SDS011;63163;55.630;37.594;2023-12-29T04:05:45;5.300000;;;3.400000;;
74644;SDS011;63163;55.630;37.594;2023-12-29T04:06:45;5.200000;;;3.700000;;
74644;SDS011;63163;55.630;37.594;2023-12-29T04:07:46;4.700000;;;3.800000;;
74644;SDS011;63163;55.630;37.594;2023-12-29T04:08:47;4.300000;;;3.200000;;
74644;SDS011;63163;55.630;37.594;2023-12-29T04:09:47;6.000000;;;4.000000;;
74644;SDS011;63163;55.630;37.594;2023-12-29T04:10:48;5.200000;;;4.100000;;
74644;SDS011;63163;55.630;37.594;2023-12-29T04:11:48;4.900000;;;3.500000;;
74644;SDS011;63163;55.630;37.594;2023-12-29T04:12:49;5.100000;;;3.500000;;
74644;SDS011;63163;55.630;37.594;2023-12-29T04:13:50;6.000000;;;3.800000;;
74644;SDS011;63163;55.630;37.594;2023-12-29T04:14:50;4.300000;;;3.400000;;
74644;SDS011;63163;55.630;37.594;2023-12-29T04:15:51;4.900000;;;3.400000;;
74644;SDS011;63163;55.630;37.594;2023-12-29T04:16:51;4.500000;;;3.500000;;
74644;SDS011;63163;55.630;37.594;2023-12-29T04:17:52;5.100000;;;3.700000;;
74644;SDS011;63163;55.630;37.594;2023-12-29T04:18:53;6.100000;;;4.000000;;
74644;SDS011;63163;55.630;37.594;2023-12-29T04:19:53;5.600000;;;4.400000;;
74644;SDS011;63163;55.630;37.594;2023-12-29T04:20:54;4.400000;;;4.000000;;
74644;SDS011;63163;55.630;37.594;2023-12-29T04:21:55;6.100000;;;3.800000;;
74644;SDS011;63163;55.630;37.594;2023-12-29T04:22:55;5.200000;;;4.300000;;
74644;SDS011;63163;55.630;37.594;2023-12-29T04:23:56;5.500000;;;3.600000;;
74644;SDS011;63163;55.630;37.594;2023-12-29T04:24:57;6.000000;;;3.400000;;
74644;SDS011;63163;55.630;37.594;2023-12-29T04:25:57;7.100000;;;3.800000;;
74644;SDS011;63163;55.630;37.594;2023-12-29T04:26:58;5.400000;;;3.700000;;
74644;SDS011;63163;55.630;37.594;2023-12-29T04:27:58;5.600000;;;4.100000;;
74644;SDS011;63163;55.630;37.594;2023-12-29T04:28:59;5.200000;;;3.900000;;
74644;SDS011;63163;55.630;37.594;2023-12-29T04:30:00;6.200000;;;3.700000;;
74644;SDS011;63163;55.630;37.594;2023-12-29T04:31:01;5.900000;;;3.700000;;
74644;SDS011;63163;55.630;37.594;2023-12-29T04:32:01;4.400000;;;3.300000;;
74644;SDS011;63163;55.630;37.594;2023-12-29T04:33:02;5.800000;;;3.600000;;
74644;SDS011;63163;55.630;37.594;2023-12-29T04:34:02;5.700000;;;4.500000;;
74644;SDS011;63163;55.630;37.594;2023-12-29T04:35:03;5.100000;;;3.900000;;
74644;SDS011;63163;55.630;37.594;2023-12-29T04:36:05;6.100000;;;4.100000;;
74644;SDS011;63163;55.630;37.594;2023-12-29T04:37:05;5.200000;;;3.100000;;
74644;SDS011;63163;55.630;37.594;2023-12-29T04:38:06;5.500000;;;4.200000;;
74644;SDS011;63163;55.630;37.594;2023-12-29T04:39:07;5.200000;;;4.100000;;
74644;SDS011;63163;55.630;37.594;2023-12-29T04:40:09;5.700000;;;4.200000;;
74644;SDS011;63163;55.630;37.594;2023-12-29T04:41:11;6.200000;;;3.900000;;
74644;SDS011;63163;55.630;37.594;2023-12-29T04:42:12;6.500000;;;3.900000;;
74644;SDS011;63163;55.630;37.594;2023-12-29T04:43:12;5.600000;;;4.900000;;
74644;SDS011;63163;55.630;37.594;2023-12-29T04:44:13;4.800000;;;3.600000;;
74644;SDS011;63163;55.630;37.594;2023-12-29T04:45:14;7.200000;;;4.400000;;
74644;SDS011;63163;55.630;37.594;2023-12-29T04:46:14;5.800000;;;4.000000;;
74644;SDS011;63163;55.630;37.594;2023-12-29T04:47:15;6.400000;;;4.000000;;
74644;SDS011;63163;55.630;37.594;2023-12-29T04:48:16;7.400000;;;5.300000;;
74644;SDS011;63163;55.630;37.594;2023-12-29T04:49:17;6.900000;;;4.300000;;
74644;SDS011;63163;55.630;37.594;2023-12-29T04:50:18;5.000000;;;3.800000;;
74644;SDS011;63163;55.630;37.594;2023-12-29T04:51:18;6.400000;;;4.100000;;
74644;SDS011;63163;55.630;37.594;2023-12-29T04:52:19;6.600000;;;3.900000;;
74644;SDS011;63163;55.630;37.594;2023-12-29T04:53:19;7.100000;;;4.400000;;
74644;SDS011;63163;55.630;37.594;2023-12-29T04:54:20;6.600000;;;4.600000;;
74644;SDS011;63163;55.630;37.594;2023-12-29T04:55:21;6.900000;;;4.100000;;
74644;SDS011;63163;55.630;37.594;2023-12-29T04:56:21;5.500000;;;4.300000;;
74644;SDS011;63163;55.630;37.594;2023-12-29T04:57:22;5.300000;;;3.700000;;
74644;SDS011;63163;55.630;37.594;2023-12-29T04:58:22;5.500000;;;4.200000;;
74644;SDS011;63163;55.630;37.594;2023-12-29T04:59:23;6.700000;;;4.600000;;
74644;SDS011;63163;55.630;37.594;2023-12-29T05:00:24;6.200000;;;4.100000;;
74644;SDS011;63163;55.630;37.594;2023-12-29T05:01:24;5.600000;;;4.000000;;
74644;SDS011;63163;55.630;37.594;2023-12-29T05:02:25;6.300000;;;4.500000;;
74644;SDS011;63163;55.630;37.594;2023-12-29T05:03:26;5.300000;;;3.900000;;
74644;SDS011;63163;55.630;37.594;2023-12-29T05:04:26;7.800000;;;4.300000;;
74644;SDS011;63163;55.630;37.594;2023-12-29T05:05:27;5.600000;;;4.100000;;
74644;SDS011;63163;55.630;37.594;2023-12-29T05:06:27;6.700000;;;3.900000;;
74644;SDS011;63163;55.630;37.594;2023-12-29T05:07:28;7.500000;;;4.600000;;
74644;SDS011;63163;55.630;37.594;2023-12-29T05:08:28;6.900000;;;4.700000;;
74644;SDS011;63163;55.630;37.594;2023-12-29T05:09:29;10.300000;;;5.200000;;
74644;SDS011;63163;55.630;37.594;2023-12-29T05:10:30;6.000000;;;4.300000;;
74644;SDS011;63163;55.630;37.594;2023-12-29T05:11:30;7.000000;;;4.600000;;
74644;SDS011;63163;55.630;37.594;2023-12-29T05:12:31;6.800000;;;4.600000;;
74644;SDS011;63163;55.630;37.594;2023-12-29T05:13:31;7.600000;;;4.700000;;
74644;SDS011;63163;55.630;37.594;2023-12-29T05:14:32;5.800000;;;4.100000;;
74644;SDS011;63163;55.630;37.594;2023-12-29T05:15:33;6.400000;;;4.900000;;
74644;SDS011;63163;55.630;37.594;2023-12-29T05:16:33;7.600000;;;5.100000;;
74644;SDS011;63163;55.630;37.594;2023-12-29T05:17:34;6.600000;;;4.700000;;
74644;SDS011;63163;55.630;37.594;2023-12-29T05:18:34;9.000000;;;8.100000;;
74644;SDS011;63163;55.630;37.594;2023-12-29T05:19:35;7.000000;;;4.200000;;
74644;SDS011;63163;55.630;37.594;2023-12-29T05:20:36;5.900000;;;4.300000;;
74644;SDS011;63163;55.630;37.594;2023-12-29T05:21:37;6.500000;;;4.900000;;
74644;SDS011;63163;55.630;37.594;2023-12-29T05:22:38;7.100000;;;4.700000;;